Skip Navigation LinksHome page > Weather > Current weather Skip Navigation Links

Current Weather

Luke AFB, Glendale, Ariz.

For information only: do not use for flight planning or navigation.
Latest weather
Observation time Monday, November 29, 2021 12:58 PM MST
Local time Monday, November 29, 2021 1:54 PM MST
Flight conditions Visual Meteorological Conditions
Winds
Wind speed calm
Visibility 10 mi.
Sky condition
Ceiling unlimited
Sky clear
Temperature 76°F
Dewpoint 25°F
Altimeter 30.05 in.Hg
Derived measurements
Relative humidity 15%
Density altitude 2130 ft.
Sea-level pressure 30.03 in.Hg
Remarks
Fully automated report.
System requires maintenance.
Automated weather observing station with precipitation discriminator.
METAR KLUF 291958Z AUTO 00000KT 10SM CLR 25/M04 A3005 RMK AO2 SLP169 T02461038 $

Settings

Location code

InnerDrive.Weather 4.0.6770.0 Release CLR 4.0.30319.42000
Copyright ©2018 Inner Drive Technology. All rights reserved. Portions Copyright ©1986-2018 David Braverman.

Find weather

Site navigation


Skip Navigation Links

Place info

Page info

PayPal - The safer, easier way to pay online!

Return home.

Copyright ©2021 Inner Drive Technology. Purveyors of fine, hand-crafted computer software. Page printed 2021-11-29T20:54:37 UTC.